createdAt,value
2017-06-26T00:02:03.632Z,40.8
2017-06-26T00:07:03.943Z,40.7
2017-06-26T00:12:03.469Z,40.8
2017-06-26T00:17:03.670Z,40.7
2017-06-26T00:22:03.668Z,40.8
2017-06-26T00:27:03.821Z,40.7
2017-06-26T00:32:03.750Z,40.8
2017-06-26T00:37:03.443Z,40.7
2017-06-26T00:42:03.386Z,40.7
2017-06-26T00:47:03.285Z,40.6
2017-06-26T00:52:03.622Z,40.6
2017-06-26T00:57:03.674Z,40.6
2017-06-26T01:02:03.825Z,40.6
2017-06-26T01:07:03.279Z,40.4
2017-06-26T01:12:03.450Z,40.4
2017-06-26T01:17:03.636Z,40.4
2017-06-26T01:22:03.172Z,40.4
2017-06-26T01:27:03.725Z,40.4
2017-06-26T01:32:03.580Z,40.4
2017-06-26T01:37:03.471Z,40.4
2017-06-26T01:42:03.044Z,40.5
2017-06-26T01:47:03.749Z,40.5
2017-06-26T01:52:03.531Z,40.5
2017-06-26T01:57:03.278Z,40.5
2017-06-26T02:02:03.178Z,40.4
2017-06-26T02:07:03.369Z,40.4
2017-06-26T02:12:03.424Z,40.4
2017-06-26T02:17:03.745Z,40.4
2017-06-26T02:22:03.774Z,40.4
2017-06-26T02:27:03.974Z,40.3
2017-06-26T02:32:07.626Z,40.1
2017-06-26T02:37:03.750Z,40.1
2017-06-26T02:42:03.162Z,40.2
2017-06-26T02:47:18.843Z,40.2
2017-06-26T02:52:03.173Z,40.2
2017-06-26T02:57:03.529Z,40.1
2017-06-26T03:02:24.911Z,40.0
2017-06-26T03:07:03.303Z,40.2
2017-06-26T03:12:03.762Z,40.3
2017-06-26T03:17:27.008Z,40.3
2017-06-26T03:22:03.128Z,40.1
2017-06-26T03:27:03.614Z,40.1
2017-06-26T03:32:28.643Z,40.1
2017-06-26T03:37:03.272Z,40.1
2017-06-26T03:42:03.599Z,40.2
2017-06-26T03:47:24.560Z,40.1
2017-06-26T03:52:03.310Z,40.0
2017-06-26T03:57:03.633Z,40.0
2017-06-26T04:02:23.276Z,40.0
2017-06-26T04:07:03.632Z,40.0
2017-06-26T04:12:03.128Z,40.0
2017-06-26T04:17:24.491Z,39.9
2017-06-26T04:22:03.922Z,39.8
2017-06-26T04:27:03.366Z,39.6
2017-06-26T04:32:24.074Z,39.4
2017-06-26T04:37:03.952Z,39.3
2017-06-26T04:42:03.271Z,39.3
2017-06-26T04:47:24.209Z,39.3
2017-06-26T04:52:03.024Z,39.3
2017-06-26T04:57:03.413Z,39.3
2017-06-26T05:02:25.020Z,39.3
2017-06-26T05:07:03.278Z,39.3
2017-06-26T05:12:03.785Z,39.6
2017-06-26T05:17:24.866Z,39.4
2017-06-26T05:22:03.661Z,39.4
2017-06-26T05:27:04.011Z,39.5
2017-06-26T05:32:23.349Z,39.6
2017-06-26T05:37:03.233Z,39.5
2017-06-26T05:42:03.600Z,39.7
2017-06-26T05:47:27.228Z,39.8
2017-06-26T05:52:03.307Z,39.9
2017-06-26T05:57:03.686Z,39.9
2017-06-26T06:02:24.494Z,40.0
2017-06-26T06:07:03.714Z,40.2
2017-06-26T06:12:03.165Z,40.1
2017-06-26T06:17:28.171Z,40.1
2017-06-26T06:22:03.125Z,40.4
2017-06-26T06:27:03.562Z,40.3
2017-06-26T06:32:25.313Z,40.5
2017-06-26T06:37:03.127Z,40.4
2017-06-26T06:42:03.512Z,40.5
2017-06-26T06:47:24.184Z,40.8
2017-06-26T06:52:03.655Z,40.8
2017-06-26T06:57:03.022Z,40.8
2017-06-26T07:02:23.519Z,40.9
2017-06-26T07:07:03.776Z,40.9
2017-06-26T07:12:03.223Z,40.9
2017-06-26T07:17:28.928Z,41.0
2017-06-26T07:22:03.689Z,41.0
2017-06-26T07:27:03.512Z,40.8
2017-06-26T07:32:27.918Z,41.7
2017-06-26T07:37:03.808Z,41.5
2017-06-26T07:42:03.281Z,41.5
2017-06-26T07:47:25.305Z,41.5
2017-06-26T07:52:03.846Z,41.5
2017-06-26T07:57:03.264Z,42.0
2017-06-26T08:02:27.655Z,41.8
2017-06-26T08:07:03.269Z,41.9
2017-06-26T08:12:03.771Z,41.7
2017-06-26T08:17:28.458Z,41.8
2017-06-26T08:22:03.638Z,41.8
2017-06-26T08:27:04.013Z,42.0
2017-06-26T08:32:23.789Z,42.3
2017-06-26T08:37:03.501Z,42.1
2017-06-26T08:42:03.780Z,42.3
2017-06-26T08:47:28.246Z,42.0
2017-06-26T08:52:03.550Z,42.0
2017-06-26T08:57:03.621Z,42.6
2017-06-26T09:02:23.124Z,42.2
2017-06-26T09:07:03.536Z,42.8
2017-06-26T09:12:03.763Z,42.2
2017-06-26T09:17:23.567Z,42.3
2017-06-26T09:22:03.943Z,42.3
2017-06-26T09:27:03.860Z,42.9
2017-06-26T09:32:23.573Z,42.7
2017-06-26T09:37:03.643Z,42.7
2017-06-26T09:42:03.549Z,43.2
2017-06-26T09:47:27.408Z,43.2
2017-06-26T09:52:03.353Z,43.3
2017-06-26T09:57:03.694Z,43.3
2017-06-26T10:02:23.451Z,43.8
2017-06-26T10:07:03.894Z,43.6
2017-06-26T10:12:03.371Z,43.5
2017-06-26T10:17:24.234Z,43.7
2017-06-26T10:22:03.207Z,43.7
2017-06-26T10:27:03.629Z,43.8
2017-06-26T10:32:25.896Z,43.7
2017-06-26T10:37:03.534Z,43.8
2017-06-26T10:42:03.818Z,43.9
2017-06-26T10:47:24.654Z,43.8
2017-06-26T10:52:03.403Z,43.8
2017-06-26T10:57:03.897Z,43.8
2017-06-26T11:02:24.034Z,44.0
2017-06-26T11:07:03.833Z,43.7
2017-06-26T11:12:03.783Z,43.6
2017-06-26T11:17:23.382Z,43.6
2017-06-26T11:22:03.110Z,43.9
2017-06-26T11:27:03.533Z,43.7
2017-06-26T11:32:27.515Z,44.3
2017-06-26T11:37:03.357Z,43.7
2017-06-26T11:42:03.807Z,43.6
2017-06-26T11:47:23.493Z,44.4
2017-06-26T11:52:03.078Z,43.9
2017-06-26T11:57:03.466Z,44.1
2017-06-26T12:02:25.725Z,43.5
2017-06-26T12:07:03.447Z,43.6
2017-06-26T12:12:03.921Z,43.6
2017-06-26T12:17:25.159Z,43.4
2017-06-26T12:22:03.304Z,43.4
2017-06-26T12:27:03.755Z,43.6
2017-06-26T12:32:23.246Z,43.8
2017-06-26T12:37:03.070Z,43.8
2017-06-26T12:42:03.457Z,43.9
2017-06-26T12:47:24.566Z,43.9
2017-06-26T12:52:03.682Z,43.9
2017-06-26T12:57:03.106Z,43.9
2017-06-26T13:02:23.527Z,44.5
2017-06-26T13:07:03.625Z,44.4
2017-06-26T13:12:03.114Z,44.4
2017-06-26T13:17:28.740Z,44.5
2017-06-26T13:22:03.532Z,45.1
2017-06-26T13:27:03.836Z,44.9
2017-06-26T13:32:21.379Z,45.2
2017-06-26T13:37:03.169Z,45.2
2017-06-26T13:42:03.529Z,45.3
2017-06-26T13:47:30.758Z,45.7
2017-06-26T13:52:03.167Z,45.7
2017-06-26T13:57:03.579Z,44.0
2017-06-26T14:02:23.405Z,42.7
2017-06-26T14:07:03.447Z,44.4
2017-06-26T14:12:03.798Z,44.3
2017-06-26T14:17:28.367Z,43.2
2017-06-26T14:22:03.669Z,44.0
2017-06-26T14:27:03.958Z,44.0
2017-06-26T14:32:28.128Z,43.5
2017-06-26T14:37:03.767Z,43.4
2017-06-26T14:42:03.083Z,42.8
2017-06-26T14:47:28.375Z,39.1
2017-06-26T14:52:03.094Z,39.3
2017-06-26T14:57:03.451Z,36.6
2017-06-26T15:02:26.662Z,35.2
2017-06-26T15:07:03.745Z,36.1
2017-06-26T15:12:03.285Z,36.0
2017-06-26T15:17:24.937Z,33.0
2017-06-26T15:22:03.619Z,33.0
2017-06-26T15:27:03.839Z,33.0
2017-06-26T15:32:22.870Z,34.9
2017-06-26T15:37:03.019Z,33.3
2017-06-26T15:42:03.392Z,33.2
2017-06-26T15:47:22.802Z,33.7
2017-06-26T15:52:03.488Z,33.7
2017-06-26T15:57:03.667Z,32.8
2017-06-26T16:02:19.367Z,32.9
2017-06-26T16:07:03.534Z,32.9
2017-06-26T16:12:03.900Z,31.0
2017-06-26T16:17:20.198Z,29.1
2017-06-26T16:22:03.475Z,29.1
2017-06-26T16:27:03.809Z,32.9
2017-06-26T16:32:19.942Z,32.2
2017-06-26T16:37:03.591Z,31.7
2017-06-26T16:42:03.921Z,32.4
2017-06-26T16:47:20.867Z,34.2
2017-06-26T16:52:03.194Z,34.1
2017-06-26T16:57:03.546Z,32.2
2017-06-26T17:02:22.895Z,32.5
2017-06-26T17:07:03.947Z,34.3
2017-06-26T17:12:03.512Z,36.0
2017-06-26T17:17:26.496Z,37.5
2017-06-26T17:22:03.190Z,37.7
2017-06-26T17:27:03.622Z,37.7
2017-06-26T17:32:22.265Z,38.6
2017-06-26T17:37:03.471Z,38.6
2017-06-26T17:42:03.819Z,38.5
2017-06-26T17:47:24.635Z,38.8
2017-06-26T17:52:03.873Z,38.7
2017-06-26T17:57:03.250Z,38.6
2017-06-26T18:02:24.898Z,38.4
2017-06-26T18:07:03.251Z,38.9
2017-06-26T18:12:03.748Z,38.8
2017-06-26T18:17:22.013Z,38.6
2017-06-26T18:22:03.515Z,38.6
2017-06-26T18:27:03.894Z,39.1
2017-06-26T18:32:25.998Z,39.6
2017-06-26T18:37:03.635Z,39.2
2017-06-26T18:42:03.097Z,39.4
2017-06-26T18:47:28.561Z,39.9
2017-06-26T18:52:03.817Z,39.9
2017-06-26T18:57:03.122Z,39.9
2017-06-26T19:02:27.519Z,39.8
2017-06-26T19:07:03.187Z,40.2
2017-06-26T19:12:03.753Z,40.2
2017-06-26T19:22:03.923Z,40.7
2017-06-26T19:27:03.523Z,40.2
2017-06-26T19:32:27.844Z,40.3
2017-06-26T19:37:03.495Z,40.3
2017-06-26T19:42:03.750Z,40.6
2017-06-26T19:47:23.879Z,40.6
2017-06-26T19:52:03.599Z,40.6
2017-06-26T19:57:03.107Z,40.7
2017-06-26T20:02:18.222Z,40.7
2017-06-26T20:07:03.547Z,40.7
2017-06-26T20:12:03.130Z,40.4
2017-06-26T20:17:05.561Z,40.4
2017-06-26T20:22:03.730Z,40.5
2017-06-26T20:27:03.120Z,40.5
2017-06-26T20:32:05.997Z,40.6
2017-06-26T20:37:03.470Z,40.5
2017-06-26T20:42:03.638Z,40.4
2017-06-26T20:47:04.281Z,40.5
2017-06-26T20:52:03.342Z,40.5
2017-06-26T20:57:03.520Z,40.6
2017-06-26T21:02:03.837Z,40.6
2017-06-26T21:07:03.372Z,40.9
2017-06-26T21:12:03.724Z,40.9
2017-06-26T21:17:04.048Z,41.2
2017-06-26T21:22:03.511Z,41.3
2017-06-26T21:27:03.681Z,42.0
2017-06-26T21:32:03.899Z,41.3
2017-06-26T21:37:03.261Z,41.2
2017-06-26T21:42:03.546Z,48.6
2017-06-26T21:47:03.811Z,48.5
2017-06-26T21:52:03.173Z,50.1
2017-06-26T21:57:03.435Z,50.0
2017-06-26T22:02:03.976Z,50.5
2017-06-26T22:07:03.409Z,50.3
2017-06-26T22:12:03.575Z,50.3
2017-06-26T22:22:03.502Z,49.5
2017-06-26T22:27:03.718Z,49.9
2017-06-26T22:32:03.298Z,49.6
2017-06-26T22:37:03.355Z,49.5
2017-06-26T22:42:03.030Z,49.1
2017-06-26T22:47:03.624Z,49.1
2017-06-26T22:52:03.867Z,48.8
2017-06-26T22:57:03.790Z,48.5
2017-06-26T23:02:03.385Z,48.5
2017-06-26T23:07:03.884Z,47.9
2017-06-26T23:12:03.870Z,47.8
2017-06-26T23:17:03.831Z,46.9
2017-06-26T23:22:03.292Z,46.9
2017-06-26T23:27:03.600Z,44.3
2017-06-26T23:32:03.546Z,43.9
2017-06-26T23:37:03.667Z,43.9
2017-06-26T23:42:03.532Z,43.4
2017-06-26T23:47:03.677Z,43.3
2017-06-26T23:52:03.890Z,43.2
2017-06-26T23:57:03.703Z,43.0
